createdAt,value
2022-10-27T00:00:57.917Z,100.00
2022-10-27T00:03:25.809Z,100.00
2022-10-27T00:05:55.126Z,100.00
2022-10-27T00:08:23.583Z,100.00
2022-10-27T00:10:58.866Z,100.00
2022-10-27T00:13:27.240Z,100.00
2022-10-27T00:15:58.873Z,100.00
2022-10-27T00:18:26.855Z,100.00
2022-10-27T00:21:04.560Z,100.00
2022-10-27T00:23:33.043Z,100.00
2022-10-27T00:26:01.613Z,100.00
2022-10-27T00:28:30.349Z,100.00
2022-10-27T00:30:59.717Z,100.00
2022-10-27T00:33:27.565Z,100.00
2022-10-27T00:35:55.635Z,100.00
2022-10-27T00:38:25.235Z,100.00
2022-10-27T00:40:52.993Z,100.00
2022-10-27T00:43:26.488Z,100.00
2022-10-27T00:45:55.599Z,100.00
2022-10-27T00:48:25.517Z,100.00
2022-10-27T00:50:53.319Z,100.00
2022-10-27T00:53:21.464Z,100.00
2022-10-27T00:55:50.894Z,100.00
2022-10-27T00:58:21.047Z,100.00
2022-10-27T01:00:49.257Z,100.00
2022-10-27T01:03:22.451Z,100.00
2022-10-27T01:05:51.149Z,100.00
2022-10-27T01:08:19.222Z,100.00
2022-10-27T01:10:47.002Z,100.00
2022-10-27T01:13:16.507Z,100.00
2022-10-27T01:15:55.000Z,100.00
2022-10-27T01:18:31.948Z,100.00
2022-10-27T01:21:27.031Z,100.00
2022-10-27T01:24:19.764Z,100.00
2022-10-27T01:26:52.295Z,100.00
2022-10-27T01:29:47.998Z,100.00
2022-10-27T01:32:26.325Z,100.00
2022-10-27T01:35:02.645Z,100.00
2022-10-27T01:37:37.285Z,100.00
2022-10-27T01:40:09.994Z,100.00
2022-10-27T01:42:42.983Z,100.00
2022-10-27T01:45:13.694Z,100.00
2022-10-27T01:47:43.500Z,100.00
2022-10-27T01:50:11.232Z,100.00
2022-10-27T01:52:46.116Z,100.00
2022-10-27T01:55:18.746Z,100.00
2022-10-27T01:58:12.672Z,100.00
2022-10-27T02:00:51.306Z,100.00
2022-10-27T02:03:27.287Z,100.00
2022-10-27T02:06:03.383Z,100.00
2022-10-27T02:08:40.930Z,100.00
2022-10-27T02:11:11.488Z,100.00
2022-10-27T02:13:41.985Z,100.00
2022-10-27T02:16:13.815Z,100.00
2022-10-27T02:18:48.416Z,100.00
2022-10-27T02:21:17.784Z,100.00
2022-10-27T02:23:45.592Z,100.00
2022-10-27T02:26:23.524Z,100.00
2022-10-27T02:28:57.100Z,100.00
2022-10-27T02:31:29.284Z,100.00
2022-10-27T02:33:59.113Z,100.00
2022-10-27T02:36:27.936Z,100.00
2022-10-27T02:38:55.708Z,100.00
2022-10-27T02:41:23.546Z,100.00
2022-10-27T02:43:51.355Z,100.00
2022-10-27T02:46:19.151Z,100.00
2022-10-27T02:48:47.008Z,100.00
2022-10-27T02:51:16.252Z,100.00
2022-10-27T02:53:44.094Z,100.00
2022-10-27T02:56:12.506Z,100.00
2022-10-27T02:58:40.438Z,100.00
2022-10-27T03:01:08.239Z,100.00
2022-10-27T03:03:36.137Z,100.00
2022-10-27T03:06:03.886Z,100.00
2022-10-27T03:08:33.113Z,100.00
2022-10-27T03:11:00.861Z,100.00
2022-10-27T03:13:28.670Z,100.00
2022-10-27T03:15:56.514Z,100.00
2022-10-27T03:18:24.316Z,100.00
2022-10-27T03:20:52.124Z,100.00
2022-10-27T03:23:19.855Z,100.00
2022-10-27T03:25:49.427Z,100.00
2022-10-27T03:28:18.225Z,100.00
2022-10-27T03:30:46.032Z,100.00
2022-10-27T03:33:13.767Z,100.00
2022-10-27T03:35:41.602Z,100.00
2022-10-27T03:38:10.899Z,100.00
2022-10-27T03:40:38.711Z,100.00
2022-10-27T03:43:07.868Z,100.00
2022-10-27T03:45:36.834Z,100.00
2022-10-27T03:48:05.857Z,100.00
2022-10-27T03:50:34.521Z,100.00
2022-10-27T03:53:03.522Z,100.00
2022-10-27T03:55:31.918Z,100.00
2022-10-27T03:58:00.093Z,100.00
2022-10-27T04:00:31.525Z,100.00
2022-10-27T04:02:59.568Z,100.00
2022-10-27T04:05:27.394Z,100.00
2022-10-27T04:07:55.215Z,100.00
2022-10-27T04:10:23.014Z,100.00
2022-10-27T04:12:51.328Z,100.00
2022-10-27T04:15:20.365Z,100.00
2022-10-27T04:17:49.801Z,100.00
2022-10-27T04:20:17.823Z,100.00
2022-10-27T04:22:45.645Z,100.00
2022-10-27T04:25:13.508Z,100.00
2022-10-27T04:27:41.280Z,100.00
2022-10-27T04:30:10.021Z,100.00
2022-10-27T04:32:38.270Z,100.00
2022-10-27T04:35:08.709Z,100.00
2022-10-27T04:37:36.666Z,100.00
2022-10-27T04:40:04.888Z,100.00
2022-10-27T04:42:33.948Z,100.00
2022-10-27T04:45:01.739Z,100.00
2022-10-27T04:47:29.891Z,100.00
2022-10-27T04:49:57.655Z,100.00
2022-10-27T04:52:26.947Z,100.00
2022-10-27T04:54:54.754Z,100.00
2022-10-27T04:57:22.555Z,100.00
2022-10-27T04:59:50.457Z,100.00
2022-10-27T05:02:18.254Z,100.00
2022-10-27T05:04:46.209Z,100.00
2022-10-27T05:07:14.024Z,100.00
2022-10-27T05:09:43.190Z,100.00
2022-10-27T05:12:11.008Z,100.00
2022-10-27T05:14:38.804Z,100.00
2022-10-27T05:17:06.579Z,100.00
2022-10-27T05:19:34.473Z,100.00
2022-10-27T05:22:02.233Z,100.00
2022-10-27T05:24:29.977Z,100.00
2022-10-27T05:26:59.228Z,100.00
2022-10-27T05:29:27.176Z,100.00
2022-10-27T05:31:55.919Z,100.00
2022-10-27T05:34:23.716Z,100.00
2022-10-27T05:36:51.503Z,100.00
2022-10-27T05:39:19.220Z,100.00
2022-10-27T05:41:46.970Z,100.00
2022-10-27T05:44:16.167Z,100.00
2022-10-27T05:46:43.952Z,100.00
2022-10-27T05:49:11.847Z,100.00
2022-10-27T05:51:39.737Z,100.00
2022-10-27T05:54:07.681Z,100.00
2022-10-27T05:56:35.565Z,100.00
2022-10-27T06:01:32.676Z,100.00
2022-10-27T06:04:00.539Z,100.00
2022-10-27T06:06:28.707Z,100.00
2022-10-27T06:08:56.581Z,100.00
2022-10-27T06:11:24.443Z,100.00
2022-10-27T06:13:52.993Z,100.00
2022-10-27T06:16:21.486Z,100.00
2022-10-27T06:18:50.726Z,100.00
2022-10-27T06:21:18.582Z,100.00
2022-10-27T06:23:48.929Z,100.00
2022-10-27T06:26:17.190Z,100.00
2022-10-27T06:28:45.027Z,100.00
2022-10-27T06:31:12.834Z,100.00
2022-10-27T06:33:40.599Z,100.00
2022-10-27T06:36:09.989Z,100.00
2022-10-27T06:38:40.263Z,100.00
2022-10-27T06:41:10.100Z,100.00
2022-10-27T06:43:37.955Z,100.00
2022-10-27T06:46:05.882Z,100.00
2022-10-27T06:48:33.966Z,100.00
2022-10-27T06:51:01.798Z,100.00
2022-10-27T06:53:31.185Z,100.00
2022-10-27T06:55:59.997Z,100.00
2022-10-27T06:58:27.829Z,100.00
2022-10-27T07:00:55.906Z,100.00
2022-10-27T07:03:23.663Z,100.00
2022-10-27T07:05:51.403Z,100.00
2022-10-27T07:08:19.190Z,100.00
2022-10-27T07:10:48.471Z,100.00
2022-10-27T07:13:16.275Z,100.00
2022-10-27T07:15:44.086Z,100.00
2022-10-27T07:18:12.290Z,100.00
2022-10-27T07:20:40.526Z,100.00
2022-10-27T07:23:10.971Z,100.00
2022-10-27T07:25:39.827Z,100.00
2022-10-27T07:28:09.150Z,100.00
2022-10-27T07:30:38.989Z,100.00
2022-10-27T07:33:06.902Z,100.00
2022-10-27T07:35:34.907Z,100.00
2022-10-27T07:38:02.771Z,100.00
2022-10-27T07:40:33.160Z,100.00
2022-10-27T07:43:06.823Z,100.00
2022-10-27T07:45:38.707Z,100.00
2022-10-27T07:48:07.961Z,100.00
2022-10-27T07:50:35.841Z,100.00
2022-10-27T07:53:04.248Z,100.00
2022-10-27T07:55:33.619Z,100.00
2022-10-27T07:58:02.818Z,100.00
2022-10-27T08:00:31.658Z,100.00
2022-10-27T08:03:02.674Z,100.00
2022-10-27T08:05:30.746Z,100.00
2022-10-27T08:07:59.990Z,100.00
2022-10-27T08:10:28.341Z,100.00
2022-10-27T08:12:56.151Z,100.00
2022-10-27T08:15:24.306Z,100.00
2022-10-27T08:17:53.915Z,100.00
2022-10-27T08:20:23.879Z,100.00
2022-10-27T08:22:56.920Z,100.00
2022-10-27T08:25:25.506Z,100.00
2022-10-27T08:27:53.686Z,100.00
2022-10-27T08:30:22.797Z,100.00
2022-10-27T08:32:51.655Z,100.00
2022-10-27T08:35:19.716Z,100.00
2022-10-27T08:37:49.090Z,100.00
2022-10-27T08:40:17.258Z,100.00
2022-10-27T08:42:55.002Z,100.00
2022-10-27T08:45:28.343Z,100.00
2022-10-27T08:47:58.492Z,100.00
2022-10-27T08:50:29.200Z,100.00
2022-10-27T08:53:04.952Z,99.70
2022-10-27T08:55:37.828Z,98.42
2022-10-27T08:58:12.414Z,98.64
2022-10-27T09:00:52.969Z,98.98
2022-10-27T09:03:45.756Z,99.85
2022-10-27T09:06:19.279Z,99.25
2022-10-27T09:08:58.065Z,97.27
2022-10-27T09:11:37.175Z,96.54
2022-10-27T09:14:23.675Z,94.87
2022-10-27T09:16:55.684Z,96.60
2022-10-27T09:19:28.563Z,91.54
2022-10-27T09:21:56.466Z,94.33
2022-10-27T09:24:30.369Z,94.08
2022-10-27T09:27:00.300Z,92.90
2022-10-27T09:29:31.282Z,92.64
2022-10-27T09:32:03.809Z,88.53
2022-10-27T09:34:39.265Z,87.55
2022-10-27T09:37:14.055Z,86.63
2022-10-27T09:39:47.517Z,85.09
2022-10-27T09:42:16.019Z,86.30
2022-10-27T09:44:49.284Z,87.42
2022-10-27T09:47:17.187Z,86.22
2022-10-27T09:49:48.541Z,84.45
2022-10-27T09:52:21.559Z,79.91
2022-10-27T09:54:55.843Z,77.97
2022-10-27T09:57:29.131Z,80.31
2022-10-27T10:00:00.839Z,81.56
2022-10-27T10:02:31.441Z,80.76
2022-10-27T10:05:00.959Z,78.93
2022-10-27T10:07:36.027Z,80.32
2022-10-27T10:10:09.236Z,81.18
2022-10-27T10:12:37.023Z,80.36
2022-10-27T10:15:20.615Z,77.05
2022-10-27T10:17:57.099Z,79.08
2022-10-27T10:20:31.742Z,76.94
2022-10-27T10:23:00.210Z,74.67
2022-10-27T10:25:33.126Z,78.38
2022-10-27T10:28:03.828Z,77.80
2022-10-27T10:30:35.101Z,76.98
2022-10-27T10:33:06.070Z,74.27
2022-10-27T10:35:45.714Z,76.96
2022-10-27T10:38:34.609Z,76.67
2022-10-27T10:41:12.114Z,77.08
2022-10-27T10:43:40.556Z,77.06
2022-10-27T10:46:18.112Z,77.51
2022-10-27T10:48:51.425Z,79.79
2022-10-27T10:54:00.727Z,78.17
2022-10-27T10:56:32.075Z,74.55
2022-10-27T10:59:06.158Z,75.85
2022-10-27T11:01:46.997Z,73.45
2022-10-27T11:04:18.134Z,76.45
2022-10-27T11:07:05.792Z,76.59
2022-10-27T11:09:39.373Z,76.20
2022-10-27T11:12:21.624Z,76.88
2022-10-27T11:14:54.651Z,77.13
2022-10-27T11:17:26.668Z,75.13
2022-10-27T11:19:57.032Z,74.70
2022-10-27T11:22:27.467Z,76.88
2022-10-27T11:25:01.768Z,74.92
2022-10-27T11:27:39.957Z,75.78
2022-10-27T11:30:21.143Z,74.65
2022-10-27T11:32:58.910Z,73.96
2022-10-27T11:35:31.236Z,74.64
2022-10-27T11:38:05.884Z,76.02
2022-10-27T11:40:44.382Z,73.29
2022-10-27T11:43:22.520Z,74.73
2022-10-27T11:45:57.108Z,73.11
2022-10-27T11:48:28.467Z,71.88
2022-10-27T11:51:02.269Z,74.99
2022-10-27T11:53:29.855Z,74.21
2022-10-27T11:56:20.896Z,74.05
2022-10-27T11:59:01.104Z,71.01
2022-10-27T12:01:45.716Z,71.13
2022-10-27T12:04:23.888Z,70.63
2022-10-27T12:07:02.002Z,69.77
2022-10-27T12:09:41.175Z,71.64
2022-10-27T12:12:15.986Z,72.71
2022-10-27T12:14:54.896Z,71.83
2022-10-27T12:17:37.698Z,70.60
2022-10-27T12:20:08.276Z,69.27
2022-10-27T12:22:40.035Z,71.46
2022-10-27T12:25:12.411Z,71.48
2022-10-27T12:27:43.131Z,67.58
2022-10-27T12:30:17.272Z,71.88
2022-10-27T12:32:50.850Z,69.35
2022-10-27T12:35:23.934Z,70.48
2022-10-27T12:37:59.602Z,69.10
2022-10-27T12:40:34.873Z,70.60
2022-10-27T12:43:13.160Z,70.37
2022-10-27T12:46:07.642Z,68.29
2022-10-27T12:48:44.059Z,67.56
2022-10-27T12:51:21.764Z,67.28
2022-10-27T12:53:54.426Z,69.03
2022-10-27T12:56:34.679Z,66.56
2022-10-27T12:59:16.896Z,68.95
2022-10-27T13:01:55.694Z,69.56
2022-10-27T13:04:47.015Z,70.10
2022-10-27T13:07:39.833Z,69.85
2022-10-27T13:10:32.303Z,71.07
2022-10-27T13:13:37.118Z,69.19
2022-10-27T13:16:14.286Z,69.09
2022-10-27T13:19:11.226Z,66.58
2022-10-27T13:21:45.489Z,67.32
2022-10-27T13:24:25.046Z,68.18
2022-10-27T13:27:00.587Z,69.54
2022-10-27T13:29:35.275Z,70.54
2022-10-27T13:32:40.108Z,73.39
2022-10-27T13:35:30.137Z,70.70
2022-10-27T13:38:25.670Z,71.53
2022-10-27T13:40:55.741Z,69.40
2022-10-27T13:43:58.082Z,72.59
2022-10-27T13:47:10.258Z,70.25
2022-10-27T13:49:55.100Z,72.37
2022-10-27T13:52:28.909Z,70.57
2022-10-27T13:55:30.233Z,71.14
2022-10-27T13:58:19.934Z,71.52
2022-10-27T14:01:14.860Z,71.48
2022-10-27T14:04:11.558Z,72.80
2022-10-27T14:06:41.708Z,70.88
2022-10-27T14:09:24.431Z,73.35
2022-10-27T14:11:56.511Z,74.20
2022-10-27T14:14:29.738Z,71.66
2022-10-27T14:17:00.913Z,72.65
2022-10-27T14:19:32.776Z,71.82
2022-10-27T14:22:01.194Z,76.08
2022-10-27T14:24:35.321Z,74.04
2022-10-27T14:27:04.353Z,74.46
2022-10-27T14:29:36.128Z,72.28
2022-10-27T14:32:16.214Z,72.37
2022-10-27T14:34:44.209Z,72.34
2022-10-27T14:37:18.748Z,71.76
2022-10-27T14:39:50.190Z,74.30
2022-10-27T14:42:24.908Z,75.17
2022-10-27T14:44:58.955Z,75.27
2022-10-27T14:50:00.591Z,76.92
2022-10-27T14:52:34.832Z,75.43
2022-10-27T14:55:04.543Z,76.93
2022-10-27T14:57:35.125Z,77.60
2022-10-27T15:00:06.067Z,78.26
2022-10-27T15:02:34.178Z,77.26
2022-10-27T15:05:15.211Z,79.20
2022-10-27T15:07:46.944Z,77.59
2022-10-27T15:10:20.128Z,78.55
2022-10-27T15:12:52.507Z,80.01
2022-10-27T15:15:21.191Z,80.25
2022-10-27T15:17:51.529Z,81.32
2022-10-27T15:20:19.960Z,80.35
2022-10-27T15:22:52.167Z,82.05
2022-10-27T15:25:23.226Z,81.83
2022-10-27T15:27:51.285Z,82.86
2022-10-27T15:30:21.647Z,82.88
2022-10-27T15:32:50.196Z,83.65
2022-10-27T15:35:33.192Z,84.02
2022-10-27T15:38:02.077Z,84.40
2022-10-27T15:40:51.046Z,85.21
2022-10-27T15:43:23.695Z,84.51
2022-10-27T15:45:52.264Z,83.71
2022-10-27T15:48:33.505Z,84.61
2022-10-27T15:51:03.315Z,84.33
2022-10-27T15:53:34.539Z,86.19
2022-10-27T15:56:08.020Z,85.39
2022-10-27T15:58:37.387Z,85.29
2022-10-27T16:01:09.296Z,85.32
2022-10-27T16:03:40.434Z,83.77
2022-10-27T16:06:26.241Z,85.36
2022-10-27T16:08:54.760Z,85.88
2022-10-27T16:11:25.474Z,84.84
2022-10-27T16:13:57.104Z,85.08
2022-10-27T16:16:25.933Z,85.12
2022-10-27T16:18:54.496Z,85.52
2022-10-27T16:21:25.345Z,84.96
2022-10-27T16:23:54.528Z,85.86
2022-10-27T16:26:27.429Z,85.66
2022-10-27T16:29:00.692Z,85.37
2022-10-27T16:31:30.544Z,86.23
2022-10-27T16:33:59.191Z,86.62
2022-10-27T16:36:27.004Z,87.26
2022-10-27T16:38:54.807Z,87.59
2022-10-27T16:41:28.466Z,86.50
2022-10-27T16:43:56.878Z,86.12
2022-10-27T16:46:24.731Z,86.90
2022-10-27T16:48:52.455Z,86.95
2022-10-27T16:51:20.393Z,86.36
2022-10-27T16:53:49.225Z,87.44
2022-10-27T16:56:17.074Z,86.99
2022-10-27T16:58:46.392Z,88.13
2022-10-27T17:01:16.943Z,87.33
2022-10-27T17:03:45.476Z,87.00
2022-10-27T17:06:14.032Z,86.40
2022-10-27T17:08:41.948Z,88.22
2022-10-27T17:11:11.534Z,87.20
2022-10-27T17:13:39.593Z,88.13
2022-10-27T17:16:10.701Z,86.96
2022-10-27T17:18:38.662Z,87.55
2022-10-27T17:21:06.757Z,87.90
2022-10-27T17:23:35.861Z,88.19
2022-10-27T17:26:04.824Z,89.64
2022-10-27T17:28:33.551Z,88.46
2022-10-27T17:31:03.989Z,89.66
2022-10-27T17:33:33.664Z,88.94
2022-10-27T17:36:05.586Z,88.10
2022-10-27T17:38:33.546Z,87.46
2022-10-27T17:41:02.171Z,88.50
2022-10-27T17:43:36.048Z,87.82
2022-10-27T17:46:07.165Z,87.49
2022-10-27T17:48:38.275Z,89.53
2022-10-27T17:51:07.955Z,89.56
2022-10-27T17:53:36.331Z,88.63
2022-10-27T17:56:06.510Z,88.38
2022-10-27T17:58:36.289Z,88.75
2022-10-27T18:01:05.848Z,88.67
2022-10-27T18:03:35.842Z,88.98
2022-10-27T18:06:07.222Z,89.58
2022-10-27T18:08:35.529Z,88.27
2022-10-27T18:11:04.923Z,87.84
2022-10-27T18:13:34.050Z,88.25
2022-10-27T18:16:02.022Z,88.58
2022-10-27T18:18:30.044Z,87.75
2022-10-27T18:21:06.228Z,88.24
2022-10-27T18:23:34.665Z,88.71
2022-10-27T18:26:03.245Z,88.90
2022-10-27T18:28:31.620Z,88.87
2022-10-27T18:31:03.593Z,89.46
2022-10-27T18:33:32.083Z,89.90
2022-10-27T18:36:07.100Z,89.57
2022-10-27T18:38:35.902Z,89.91
2022-10-27T18:41:06.105Z,90.58
2022-10-27T18:43:34.485Z,91.22
2022-10-27T18:46:04.413Z,90.38
2022-10-27T18:48:33.566Z,91.21
2022-10-27T18:51:03.308Z,91.15
2022-10-27T18:53:34.705Z,91.67
2022-10-27T18:56:03.150Z,91.01
2022-10-27T18:58:31.527Z,91.40
2022-10-27T19:01:03.677Z,92.09
2022-10-27T19:03:31.731Z,92.07
2022-10-27T19:06:00.028Z,93.00
2022-10-27T19:08:28.026Z,93.76
2022-10-27T19:11:02.901Z,94.55
2022-10-27T19:13:30.742Z,94.07
2022-10-27T19:16:02.449Z,94.49
2022-10-27T19:18:30.848Z,95.50
2022-10-27T19:20:59.716Z,95.93
2022-10-27T19:23:28.419Z,95.80
2022-10-27T19:26:05.222Z,95.90
2022-10-27T19:28:33.294Z,96.25
2022-10-27T19:31:01.132Z,96.38
2022-10-27T19:33:30.600Z,97.07
2022-10-27T19:36:04.734Z,98.05
2022-10-27T19:38:32.872Z,99.02
2022-10-27T19:41:02.171Z,99.17
2022-10-27T19:43:31.679Z,100.00
2022-10-27T19:45:59.637Z,100.00
2022-10-27T19:48:27.459Z,100.00
2022-10-27T19:50:55.280Z,100.00
2022-10-27T19:53:23.671Z,100.00
2022-10-27T19:55:51.648Z,100.00
2022-10-27T19:58:20.918Z,100.00
2022-10-27T20:00:48.764Z,100.00
2022-10-27T20:03:16.538Z,100.00
2022-10-27T20:05:53.573Z,100.00
2022-10-27T20:08:21.354Z,100.00
2022-10-27T20:10:49.341Z,100.00
2022-10-27T20:13:17.413Z,99.78
2022-10-27T20:15:46.611Z,100.00
2022-10-27T20:18:14.356Z,100.00
2022-10-27T20:20:42.230Z,100.00
2022-10-27T20:23:09.942Z,100.00
2022-10-27T20:25:37.671Z,100.00
2022-10-27T20:28:05.787Z,100.00
2022-10-27T20:30:33.546Z,100.00
2022-10-27T20:33:02.668Z,100.00
2022-10-27T20:35:30.476Z,100.00
2022-10-27T20:37:58.197Z,100.00
2022-10-27T20:40:26.227Z,100.00
2022-10-27T20:42:54.312Z,100.00
2022-10-27T20:45:22.506Z,100.00
2022-10-27T20:47:50.245Z,100.00
2022-10-27T20:50:20.199Z,100.00
2022-10-27T20:52:47.936Z,100.00
2022-10-27T20:55:15.859Z,100.00
2022-10-27T20:57:43.589Z,100.00
2022-10-27T21:00:12.809Z,100.00
2022-10-27T21:02:41.989Z,100.00
2022-10-27T21:05:10.213Z,100.00
2022-10-27T21:07:39.645Z,100.00
2022-10-27T21:10:08.955Z,100.00
2022-10-27T21:12:38.250Z,100.00
2022-10-27T21:15:06.798Z,100.00
2022-10-27T21:17:34.544Z,100.00
2022-10-27T21:20:02.341Z,100.00
2022-10-27T21:22:30.062Z,100.00
2022-10-27T21:24:59.378Z,100.00
2022-10-27T21:27:27.130Z,100.00
2022-10-27T21:29:55.679Z,100.00
2022-10-27T21:32:23.491Z,100.00
2022-10-27T21:34:51.172Z,100.00
2022-10-27T21:37:19.027Z,100.00
2022-10-27T21:39:46.772Z,100.00
2022-10-27T21:42:17.733Z,100.00
2022-10-27T21:44:45.507Z,100.00
2022-10-27T21:47:13.247Z,100.00
2022-10-27T21:49:41.055Z,100.00
2022-10-27T21:52:08.784Z,100.00
2022-10-27T21:54:36.692Z,100.00
2022-10-27T21:57:04.724Z,100.00
2022-10-27T21:59:33.863Z,100.00
2022-10-27T22:02:02.088Z,100.00
2022-10-27T22:04:29.996Z,100.00
2022-10-27T22:06:57.773Z,100.00
2022-10-27T22:09:25.848Z,100.00
2022-10-27T22:11:53.596Z,99.11
2022-10-27T22:14:21.370Z,100.00
2022-10-27T22:16:50.559Z,98.36
2022-10-27T22:19:20.904Z,100.00
2022-10-27T22:21:50.477Z,99.96
2022-10-27T22:24:18.224Z,100.00
2022-10-27T22:26:46.005Z,100.00
2022-10-27T22:29:13.727Z,100.00
2022-10-27T22:31:41.608Z,100.00
2022-10-27T22:34:11.867Z,100.00
2022-10-27T22:36:39.947Z,100.00
2022-10-27T22:39:07.760Z,100.00
2022-10-27T22:41:36.336Z,100.00
2022-10-27T22:44:05.376Z,100.00
2022-10-27T22:46:34.564Z,100.00
2022-10-27T22:49:02.375Z,100.00
2022-10-27T22:51:31.776Z,100.00
2022-10-27T22:54:00.466Z,100.00
2022-10-27T22:56:30.307Z,100.00
2022-10-27T22:59:00.647Z,100.00
2022-10-27T23:01:31.359Z,100.00
2022-10-27T23:04:01.291Z,100.00
2022-10-27T23:06:32.887Z,100.00
2022-10-27T23:09:02.338Z,100.00
2022-10-27T23:11:32.402Z,100.00
2022-10-27T23:14:00.211Z,100.00
2022-10-27T23:16:29.124Z,100.00
2022-10-27T23:18:57.984Z,100.00
2022-10-27T23:21:26.086Z,99.57
2022-10-27T23:23:56.824Z,100.00
2022-10-27T23:26:26.464Z,100.00
2022-10-27T23:28:55.717Z,100.00
2022-10-27T23:31:24.731Z,99.55
2022-10-27T23:33:53.713Z,99.97
2022-10-27T23:36:21.767Z,99.91
2022-10-27T23:38:49.850Z,99.36
2022-10-27T23:41:19.011Z,98.32
2022-10-27T23:43:50.166Z,99.24
2022-10-27T23:46:18.332Z,97.97
2022-10-27T23:48:46.241Z,96.55
2022-10-27T23:51:14.175Z,96.05
2022-10-27T23:53:42.440Z,95.89
2022-10-27T23:56:11.605Z,94.23
2022-10-27T23:58:42.628Z,94.25
